sensor_id;sensor_type;location;lat;lon;timestamp;pressure;altitude;pressure_sealevel;temperature;humidity
20105;BME280;10212;42.714;23.310;2022-08-07T00:04:12;94995.34;;;21.64;59.76
20105;BME280;10212;42.714;23.310;2022-08-07T00:09:12;94994.06;;;21.56;60.16
20105;BME280;10212;42.714;23.310;2022-08-07T00:14:13;94988.88;;;21.76;59.33
20105;BME280;10212;42.714;23.310;2022-08-07T00:19:13;94996.91;;;21.65;59.65
20105;BME280;10212;42.714;23.310;2022-08-07T00:24:14;95001.56;;;21.44;60.27
20105;BME280;10212;42.714;23.310;2022-08-07T00:29:15;95000.84;;;21.73;59.36
20105;BME280;10212;42.714;23.310;2022-08-07T00:34:17;95019.69;;;21.77;59.50
20105;BME280;10212;42.714;23.310;2022-08-07T00:39:17;95012.03;;;21.70;59.74
20105;BME280;10212;42.714;23.310;2022-08-07T00:44:19;95003.91;;;21.56;59.92
20105;BME280;10212;42.714;23.310;2022-08-07T00:49:20;95008.09;;;21.62;59.66
20105;BME280;10212;42.714;23.310;2022-08-07T00:54:21;95006.06;;;21.49;59.63
20105;BME280;10212;42.714;23.310;2022-08-07T00:59:22;95014.84;;;21.39;59.33
20105;BME280;10212;42.714;23.310;2022-08-07T01:04:23;95008.63;;;21.64;59.29
20105;BME280;10212;42.714;23.310;2022-08-07T01:09:24;95015.78;;;21.18;60.62
20105;BME280;10212;42.714;23.310;2022-08-07T01:14:25;95001.53;;;20.88;61.64
20105;BME280;10212;42.714;23.310;2022-08-07T01:19:28;95013.44;;;21.06;60.94
20105;BME280;10212;42.714;23.310;2022-08-07T01:24:30;95030.94;;;20.92;61.16
20105;BME280;10212;42.714;23.310;2022-08-07T01:29:31;95021.75;;;20.68;62.56
20105;BME280;10212;42.714;23.310;2022-08-07T01:34:33;95024.91;;;20.76;62.15
20105;BME280;10212;42.714;23.310;2022-08-07T01:39:34;95033.41;;;20.67;62.20
20105;BME280;10212;42.714;23.310;2022-08-07T01:44:38;95031.53;;;20.68;62.66
20105;BME280;10212;42.714;23.310;2022-08-07T01:49:39;95053.47;;;21.00;61.22
20105;BME280;10212;42.714;23.310;2022-08-07T01:54:40;95090.56;;;21.15;60.80
20105;BME280;10212;42.714;23.310;2022-08-07T01:59:45;95121.81;;;21.18;60.67
20105;BME280;10212;42.714;23.310;2022-08-07T02:04:54;95121.84;;;21.03;61.21
20105;BME280;10212;42.714;23.310;2022-08-07T02:09:55;95116.28;;;20.89;62.46
20105;BME280;10212;42.714;23.310;2022-08-07T02:14:59;95121.31;;;21.11;63.30
20105;BME280;10212;42.714;23.310;2022-08-07T02:20:03;95114.97;;;20.86;66.62
20105;BME280;10212;42.714;23.310;2022-08-07T02:25:05;95100.69;;;20.56;73.01
20105;BME280;10212;42.714;23.310;2022-08-07T02:30:07;95074.22;;;20.35;76.84
20105;BME280;10212;42.714;23.310;2022-08-07T02:40:11;95049.56;;;19.67;84.75
20105;BME280;10212;42.714;23.310;2022-08-07T02:45:14;95052.97;;;19.62;83.13
20105;BME280;10212;42.714;23.310;2022-08-07T02:50:16;95060.56;;;19.37;85.29
20105;BME280;10212;42.714;23.310;2022-08-07T02:55:21;95074.88;;;19.42;85.04
20105;BME280;10212;42.714;23.310;2022-08-07T03:00:23;95055.25;;;19.22;89.03
20105;BME280;10212;42.714;23.310;2022-08-07T03:05:26;95033.22;;;19.11;90.23
20105;BME280;10212;42.714;23.310;2022-08-07T03:10:27;95053.81;;;19.03;90.48
20105;BME280;10212;42.714;23.310;2022-08-07T03:15:28;95050.75;;;19.22;86.83
20105;BME280;10212;42.714;23.310;2022-08-07T03:20:30;95055.00;;;19.28;87.40
20105;BME280;10212;42.714;23.310;2022-08-07T03:25:33;95053.47;;;19.54;87.21
20105;BME280;10212;42.714;23.310;2022-08-07T03:30:35;95051.66;;;19.54;87.42
20105;BME280;10212;42.714;23.310;2022-08-07T03:35:38;95051.91;;;19.58;88.53
20105;BME280;10212;42.714;23.310;2022-08-07T03:40:40;95056.44;;;19.68;87.36
20105;BME280;10212;42.714;23.310;2022-08-07T03:45:41;95052.22;;;19.82;87.04
20105;BME280;10212;42.714;23.310;2022-08-07T03:50:42;95072.13;;;20.06;84.65
20105;BME280;10212;42.714;23.310;2022-08-07T03:55:44;95065.22;;;20.15;81.70
20105;BME280;10212;42.714;23.310;2022-08-07T04:00:47;95067.88;;;20.15;82.20
20105;BME280;10212;42.714;23.310;2022-08-07T04:05:48;95060.19;;;20.29;80.50
20105;BME280;10212;42.714;23.310;2022-08-07T04:10:49;95070.53;;;20.46;80.11
20105;BME280;10212;42.714;23.310;2022-08-07T04:15:50;95081.59;;;20.64;79.29
20105;BME280;10212;42.714;23.310;2022-08-07T04:20:51;95080.28;;;20.77;78.97
20105;BME280;10212;42.714;23.310;2022-08-07T04:25:52;95086.09;;;20.84;80.35
20105;BME280;10212;42.714;23.310;2022-08-07T04:30:53;95085.28;;;20.94;77.16
20105;BME280;10212;42.714;23.310;2022-08-07T04:35:54;95100.13;;;20.90;78.13
20105;BME280;10212;42.714;23.310;2022-08-07T04:40:55;95095.38;;;20.98;77.60
20105;BME280;10212;42.714;23.310;2022-08-07T04:46:05;95099.06;;;20.86;77.62
20105;BME280;10212;42.714;23.310;2022-08-07T04:51:18;95101.69;;;20.91;77.45
20105;BME280;10212;42.714;23.310;2022-08-07T04:56:25;95105.44;;;21.01;77.08
20105;BME280;10212;42.714;23.310;2022-08-07T05:02:06;95110.94;;;21.15;76.94
20105;BME280;10212;42.714;23.310;2022-08-07T05:07:17;95111.34;;;21.53;76.37
20105;BME280;10212;42.714;23.310;2022-08-07T05:12:26;95117.34;;;21.75;74.77
20105;BME280;10212;42.714;23.310;2022-08-07T05:17:28;95118.59;;;21.93;73.19
20105;BME280;10212;42.714;23.310;2022-08-07T05:22:30;95119.91;;;21.96;71.09
20105;BME280;10212;42.714;23.310;2022-08-07T05:27:34;95124.59;;;22.09;69.93
20105;BME280;10212;42.714;23.310;2022-08-07T05:32:36;95122.81;;;22.34;67.99
20105;BME280;10212;42.714;23.310;2022-08-07T05:37:39;95124.34;;;22.46;67.64
20105;BME280;10212;42.714;23.310;2022-08-07T05:42:40;95121.91;;;22.84;67.15
20105;BME280;10212;42.714;23.310;2022-08-07T05:47:41;95135.44;;;23.12;66.08
20105;BME280;10212;42.714;23.310;2022-08-07T05:52:42;95143.66;;;23.16;65.07
20105;BME280;10212;42.714;23.310;2022-08-07T05:57:44;95157.16;;;22.95;65.43
20105;BME280;10212;42.714;23.310;2022-08-07T06:02:48;95160.16;;;22.88;66.63
20105;BME280;10212;42.714;23.310;2022-08-07T06:07:49;95168.66;;;22.85;66.24
20105;BME280;10212;42.714;23.310;2022-08-07T06:12:50;95163.00;;;22.97;65.48
20105;BME280;10212;42.714;23.310;2022-08-07T06:17:51;95168.34;;;23.22;64.73
20105;BME280;10212;42.714;23.310;2022-08-07T06:22:54;95166.94;;;23.00;63.84
20105;BME280;10212;42.714;23.310;2022-08-07T06:28:05;95174.13;;;22.99;65.11
20105;BME280;10212;42.714;23.310;2022-08-07T06:33:06;95174.16;;;23.24;64.75
20105;BME280;10212;42.714;23.310;2022-08-07T06:38:06;95164.94;;;23.16;65.65
20105;BME280;10212;42.714;23.310;2022-08-07T06:43:09;95161.28;;;23.36;65.29
20105;BME280;10212;42.714;23.310;2022-08-07T06:48:10;95164.31;;;23.49;63.16
20105;BME280;10212;42.714;23.310;2022-08-07T06:53:12;95154.44;;;23.74;62.17
20105;BME280;10212;42.714;23.310;2022-08-07T06:58:14;95154.38;;;23.79;60.73
20105;BME280;10212;42.714;23.310;2022-08-07T07:03:16;95165.25;;;24.02;59.78
20105;BME280;10212;42.714;23.310;2022-08-07T07:08:16;95160.59;;;24.13;60.13
20105;BME280;10212;42.714;23.310;2022-08-07T07:13:26;95159.50;;;24.19;61.01
20105;BME280;10212;42.714;23.310;2022-08-07T07:18:37;95158.81;;;24.47;58.94
20105;BME280;10212;42.714;23.310;2022-08-07T07:23:39;95157.50;;;24.64;55.84
20105;BME280;10212;42.714;23.310;2022-08-07T07:33:51;95162.03;;;25.11;55.27
20105;BME280;10212;42.714;23.310;2022-08-07T07:38:53;95165.31;;;25.22;53.58
20105;BME280;10212;42.714;23.310;2022-08-07T07:43:54;95159.00;;;25.32;52.75
20105;BME280;10212;42.714;23.310;2022-08-07T07:48:58;95152.69;;;25.27;52.55
20105;BME280;10212;42.714;23.310;2022-08-07T07:54:00;95166.50;;;25.29;52.67
20105;BME280;10212;42.714;23.310;2022-08-07T07:59:03;95159.50;;;25.48;51.80
20105;BME280;10212;42.714;23.310;2022-08-07T08:04:07;95165.72;;;25.71;51.27
20105;BME280;10212;42.714;23.310;2022-08-07T08:09:08;95170.06;;;25.81;51.87
20105;BME280;10212;42.714;23.310;2022-08-07T08:14:09;95170.25;;;25.85;50.27
20105;BME280;10212;42.714;23.310;2022-08-07T08:19:13;95175.00;;;25.88;51.10
20105;BME280;10212;42.714;23.310;2022-08-07T08:24:16;95174.00;;;25.98;50.32
20105;BME280;10212;42.714;23.310;2022-08-07T08:29:40;95166.91;;;26.16;50.00
20105;BME280;10212;42.714;23.310;2022-08-07T08:34:42;95177.03;;;26.19;49.34
20105;BME280;10212;42.714;23.310;2022-08-07T08:39:46;95181.97;;;26.12;49.65
20105;BME280;10212;42.714;23.310;2022-08-07T08:44:53;95176.09;;;26.24;49.92
20105;BME280;10212;42.714;23.310;2022-08-07T08:50:11;95179.38;;;26.58;48.75
20105;BME280;10212;42.714;23.310;2022-08-07T08:55:21;95179.56;;;26.84;48.41
20105;BME280;10212;42.714;23.310;2022-08-07T09:00:25;95179.38;;;27.04;47.39
20105;BME280;10212;42.714;23.310;2022-08-07T09:11:19;95165.63;;;27.78;46.25
20105;BME280;10212;42.714;23.310;2022-08-07T09:22:09;95142.50;;;27.82;45.69
20105;BME280;10212;42.714;23.310;2022-08-07T09:27:29;95159.78;;;27.76;44.79
20105;BME280;10212;42.714;23.310;2022-08-07T09:32:59;95146.13;;;28.04;44.03
20105;BME280;10212;42.714;23.310;2022-08-07T09:38:12;95135.56;;;28.43;43.56
20105;BME280;10212;42.714;23.310;2022-08-07T09:48:50;95126.25;;;28.58;43.06
20105;BME280;10212;42.714;23.310;2022-08-07T09:53:59;95128.31;;;28.44;43.43
20105;BME280;10212;42.714;23.310;2022-08-07T10:04:50;95123.25;;;28.33;40.65
20105;BME280;10212;42.714;23.310;2022-08-07T10:15:40;95128.78;;;28.28;40.46
20105;BME280;10212;42.714;23.310;2022-08-07T10:26:02;95114.28;;;28.11;41.11
20105;BME280;10212;42.714;23.310;2022-08-07T10:42:24;95112.69;;;28.63;41.80
20105;BME280;10212;42.714;23.310;2022-08-07T10:47:41;95113.31;;;28.34;41.94
20105;BME280;10212;42.714;23.310;2022-08-07T10:52:58;95111.91;;;28.01;43.33
20105;BME280;10212;42.714;23.310;2022-08-07T10:58:16;95115.94;;;27.54;43.53
20105;BME280;10212;42.714;23.310;2022-08-07T11:03:33;95127.16;;;27.15;44.15
20105;BME280;10212;42.714;23.310;2022-08-07T11:14:07;95106.84;;;27.73;43.89
20105;BME280;10212;42.714;23.310;2022-08-07T11:19:22;95103.09;;;27.91;43.44
20105;BME280;10212;42.714;23.310;2022-08-07T11:24:36;95089.91;;;28.79;42.29
20105;BME280;10212;42.714;23.310;2022-08-07T11:30:04;95104.94;;;29.49;40.91
20105;BME280;10212;42.714;23.310;2022-08-07T11:35:11;95112.88;;;29.06;42.97
20105;BME280;10212;42.714;23.310;2022-08-07T11:56:40;95122.28;;;28.64;45.57
20105;BME280;10212;42.714;23.310;2022-08-07T12:07:15;95099.13;;;29.17;43.90
20105;BME280;10212;42.714;23.310;2022-08-07T12:12:39;95120.16;;;28.97;44.57
20105;BME280;10212;42.714;23.310;2022-08-07T12:17:48;95119.16;;;28.45;45.01
20105;BME280;10212;42.714;23.310;2022-08-07T12:23:12;95121.69;;;28.50;44.00
20105;BME280;10212;42.714;23.310;2022-08-07T12:28:36;95112.56;;;27.98;45.77
20105;BME280;10212;42.714;23.310;2022-08-07T12:33:42;95107.50;;;27.87;45.73
20105;BME280;10212;42.714;23.310;2022-08-07T12:38:46;95109.22;;;27.74;47.16
20105;BME280;10212;42.714;23.310;2022-08-07T12:43:48;95102.84;;;28.76;43.79
20105;BME280;10212;42.714;23.310;2022-08-07T12:59:32;95094.66;;;28.64;43.26
20105;BME280;10212;42.714;23.310;2022-08-07T13:15:35;95073.59;;;29.83;39.18
20105;BME280;10212;42.714;23.310;2022-08-07T13:20:43;95080.19;;;30.07;39.47
20105;BME280;10212;42.714;23.310;2022-08-07T13:25:52;95072.25;;;30.11;37.52
20105;BME280;10212;42.714;23.310;2022-08-07T13:31:00;95059.75;;;30.49;37.43
20105;BME280;10212;42.714;23.310;2022-08-07T13:36:09;95052.88;;;30.39;38.00
20105;BME280;10212;42.714;23.310;2022-08-07T13:41:32;95058.44;;;30.68;37.39
20105;BME280;10212;42.714;23.310;2022-08-07T13:46:37;95061.47;;;30.66;36.66
20105;BME280;10212;42.714;23.310;2022-08-07T13:51:39;95065.22;;;31.12;36.14
20105;BME280;10212;42.714;23.310;2022-08-07T13:56:42;95063.25;;;30.75;36.65
20105;BME280;10212;42.714;23.310;2022-08-07T14:01:54;95066.34;;;30.86;36.16
20105;BME280;10212;42.714;23.310;2022-08-07T14:06:56;95067.84;;;30.49;37.21
20105;BME280;10212;42.714;23.310;2022-08-07T14:12:00;95080.19;;;30.07;37.83
20105;BME280;10212;42.714;23.310;2022-08-07T14:17:05;95088.44;;;29.38;39.01
20105;BME280;10212;42.714;23.310;2022-08-07T14:22:09;95075.97;;;28.37;43.00
20105;BME280;10212;42.714;23.310;2022-08-07T14:27:20;95077.03;;;27.56;45.10
20105;BME280;10212;42.714;23.310;2022-08-07T14:32:26;95077.75;;;27.21;46.67
20105;BME280;10212;42.714;23.310;2022-08-07T14:37:29;95084.38;;;26.92;47.79
20105;BME280;10212;42.714;23.310;2022-08-07T14:42:31;95079.16;;;26.87;48.15
20105;BME280;10212;42.714;23.310;2022-08-07T14:47:34;95076.34;;;26.92;47.60
20105;BME280;10212;42.714;23.310;2022-08-07T14:52:36;95074.78;;;26.91;47.65
20105;BME280;10212;42.714;23.310;2022-08-07T14:57:38;95074.97;;;26.95;46.48
20105;BME280;10212;42.714;23.310;2022-08-07T15:02:43;95064.88;;;27.32;45.53
20105;BME280;10212;42.714;23.310;2022-08-07T15:07:45;95066.09;;;27.26;45.88
20105;BME280;10212;42.714;23.310;2022-08-07T15:12:48;95059.41;;;27.64;45.07
20105;BME280;10212;42.714;23.310;2022-08-07T15:17:57;95062.13;;;28.00;44.42
20105;BME280;10212;42.714;23.310;2022-08-07T15:22:59;95054.66;;;28.23;43.62
20105;BME280;10212;42.714;23.310;2022-08-07T15:28:02;95047.69;;;28.58;43.67
20105;BME280;10212;42.714;23.310;2022-08-07T15:33:04;95045.28;;;29.13;42.55
20105;BME280;10212;42.714;23.310;2022-08-07T15:38:05;95054.00;;;28.92;43.21
20105;BME280;10212;42.714;23.310;2022-08-07T15:53:14;95062.69;;;28.50;43.44
20105;BME280;10212;42.714;23.310;2022-08-07T15:58:16;95067.47;;;28.00;44.28
20105;BME280;10212;42.714;23.310;2022-08-07T16:03:19;95066.00;;;27.58;44.76
20105;BME280;10212;42.714;23.310;2022-08-07T16:08:23;95069.00;;;27.48;45.71
20105;BME280;10212;42.714;23.310;2022-08-07T16:34:54;95071.59;;;27.21;46.11
20105;BME280;10212;42.714;23.310;2022-08-07T16:56:19;95108.25;;;22.67;71.55
20105;BME280;10212;42.714;23.310;2022-08-07T17:12:27;95153.66;;;21.13;97.69
20105;BME280;10212;42.714;23.310;2022-08-07T17:23:00;95169.56;;;21.13;85.89
20105;BME280;10212;42.714;23.310;2022-08-07T17:28:16;95175.91;;;21.02;93.95
20105;BME280;10212;42.714;23.310;2022-08-07T17:33:25;95170.88;;;20.90;91.72
20105;BME280;10212;42.714;23.310;2022-08-07T17:38:37;95168.47;;;20.93;91.51
20105;BME280;10212;42.714;23.310;2022-08-07T17:43:47;95189.19;;;20.96;91.15
20105;BME280;10212;42.714;23.310;2022-08-07T17:59:43;95197.41;;;20.95;93.96
20105;BME280;10212;42.714;23.310;2022-08-07T18:10:30;95220.69;;;21.08;93.18
20105;BME280;10212;42.714;23.310;2022-08-07T18:16:08;95223.38;;;21.19;92.24
20105;BME280;10212;42.714;23.310;2022-08-07T18:21:21;95234.22;;;21.12;93.62
20105;BME280;10212;42.714;23.310;2022-08-07T18:43:11;95261.19;;;21.66;86.26
20105;BME280;10212;42.714;23.310;2022-08-07T18:48:41;95269.44;;;21.49;87.50
20105;BME280;10212;42.714;23.310;2022-08-07T18:59:17;95281.16;;;21.27;91.20
20105;BME280;10212;42.714;23.310;2022-08-07T19:04:34;95286.19;;;21.29;92.36
20105;BME280;10212;42.714;23.310;2022-08-07T19:10:20;95287.22;;;21.49;89.78
20105;BME280;10212;42.714;23.310;2022-08-07T19:20:58;95292.50;;;21.64;87.88
20105;BME280;10212;42.714;23.310;2022-08-07T19:25:59;95313.19;;;21.57;88.10
20105;BME280;10212;42.714;23.310;2022-08-07T19:31:10;95318.50;;;21.57;88.34
20105;BME280;10212;42.714;23.310;2022-08-07T19:36:13;95314.28;;;21.61;87.29
20105;BME280;10212;42.714;23.310;2022-08-07T19:41:18;95314.28;;;21.51;87.05
20105;BME280;10212;42.714;23.310;2022-08-07T19:46:25;95314.25;;;21.45;83.34
20105;BME280;10212;42.714;23.310;2022-08-07T19:51:31;95300.22;;;21.55;81.13
20105;BME280;10212;42.714;23.310;2022-08-07T19:56:37;95302.59;;;21.52;82.64
20105;BME280;10212;42.714;23.310;2022-08-07T20:01:51;95302.63;;;21.36;83.52
20105;BME280;10212;42.714;23.310;2022-08-07T20:06:54;95304.75;;;21.34;83.68
20105;BME280;10212;42.714;23.310;2022-08-07T20:11:56;95306.31;;;21.56;78.39
20105;BME280;10212;42.714;23.310;2022-08-07T20:16:59;95290.38;;;21.72;75.99
20105;BME280;10212;42.714;23.310;2022-08-07T20:22:01;95282.94;;;21.63;79.83
20105;BME280;10212;42.714;23.310;2022-08-07T20:27:04;95281.34;;;21.62;77.47
20105;BME280;10212;42.714;23.310;2022-08-07T20:32:09;95293.28;;;21.54;78.18
20105;BME280;10212;42.714;23.310;2022-08-07T20:37:12;95307.66;;;21.48;79.93
20105;BME280;10212;42.714;23.310;2022-08-07T20:42:13;95298.88;;;21.42;77.69
20105;BME280;10212;42.714;23.310;2022-08-07T20:47:17;95296.22;;;21.53;75.53
20105;BME280;10212;42.714;23.310;2022-08-07T20:52:21;95297.56;;;21.45;75.95
20105;BME280;10212;42.714;23.310;2022-08-07T20:57:23;95303.91;;;21.44;75.08
20105;BME280;10212;42.714;23.310;2022-08-07T21:02:26;95305.25;;;21.52;76.87
20105;BME280;10212;42.714;23.310;2022-08-07T21:07:49;95301.28;;;21.39;75.16
20105;BME280;10212;42.714;23.310;2022-08-07T21:12:54;95301.28;;;21.28;75.59
20105;BME280;10212;42.714;23.310;2022-08-07T21:17:58;95296.78;;;21.29;75.67
20105;BME280;10212;42.714;23.310;2022-08-07T21:33:57;95302.06;;;20.87;82.16
20105;BME280;10212;42.714;23.310;2022-08-07T21:39:12;95300.97;;;20.62;83.97
20105;BME280;10212;42.714;23.310;2022-08-07T21:44:30;95304.09;;;20.48;83.19
20105;BME280;10212;42.714;23.310;2022-08-07T21:49:49;95300.16;;;20.62;81.49
20105;BME280;10212;42.714;23.310;2022-08-07T21:55:01;95307.78;;;20.37;83.46
20105;BME280;10212;42.714;23.310;2022-08-07T22:00:21;95298.19;;;20.26;85.26
20105;BME280;10212;42.714;23.310;2022-08-07T22:05:25;95311.16;;;20.22;85.45
20105;BME280;10212;42.714;23.310;2022-08-07T22:10:31;95310.63;;;20.20;85.83
20105;BME280;10212;42.714;23.310;2022-08-07T22:15:51;95321.16;;;20.09;86.55
20105;BME280;10212;42.714;23.310;2022-08-07T22:26:20;95303.31;;;20.43;83.99
20105;BME280;10212;42.714;23.310;2022-08-07T22:31:47;95308.28;;;20.29;85.17
20105;BME280;10212;42.714;23.310;2022-08-07T22:37:12;95324.34;;;20.11;86.79
20105;BME280;10212;42.714;23.310;2022-08-07T22:42:21;95319.84;;;20.12;85.95
20105;BME280;10212;42.714;23.310;2022-08-07T23:09:25;95327.13;;;20.38;84.36
20105;BME280;10212;42.714;23.310;2022-08-07T23:52:29;95324.41;;;19.35;89.53
20105;BME280;10212;42.714;23.310;2022-08-07T23:57:35;95312.75;;;19.31;88.92
